RJSARJOR

Guest
Details From RJSA - AOMORI
To RJOR - TOTTORI
Flight Number -
Tags generated
Created
Modified
Stats Distance 454 nm / 842 km
Max Altitude 34,000 ft / 10,363 m
Waypoints 6
Social Downloads 0
Likes 0
Share VATSIM

Download

Looking for another format? Having issues loading an existing format? Contact us
Advertisement - Login to hide

Notes

Basic altitude profile: - Ascent Rate: 2500ft/min - Ascent Speed: 250kts - Cruise Altitude: 35000ft - Cruise Speed: 420kts - Descent Rate: 1500ft/min - Descent Speed: 250kts Options: - Use NATs: yes - Use PACOTS: yes - Use low airways: yes - Use high airways: yes

Route

RJSA NAMMY Y19 NI Y14 SAMON RJOR

ID Type Via Altitude Latitude Longitude Leg Dist Tot Dist Heading (true) Name
O RJSA APT - 0 ft / 0 m 40.73327˚ 140.68859˚ - 0 nm - AOMORI
NAMMY FIX - 22,800 ft / 6,949 m 39.80999˚ 139.87716˚ 66 nm 66 nm 214° / 214° -
NI NDB Y19 (AWY-HI) 34,000 ft / 10,363 m 38.06579˚ 138.40986˚ 125 nm 191 nm 214° / 213° SADO NDB
HOTAL FIX Y14 (AWY-HI) 26,700 ft / 8,138 m 36.92303˚ 135.90707˚ 137 nm 329 nm 241° / 239° -
SAMON FIX Y14 (AWY-LO) 26,000 ft / 7,925 m 36.24290˚ 134.50332˚ 79 nm 408 nm 239° / 238° -
O RJOR APT - 0 ft / 0 m 35.53005˚ 134.16505˚ 45 nm 454 nm 201° / 201° TOTTORI

Altitude Profile

Advertisement - Login to hide

Weather


0- 5 10 15 20 25 30 35+ Temperature / ° C

Clouds and Precipitation
Forecast for 2018-05-21 06:00 UTC. Updated 2 hours ago

Ground ~20,000 ft ~40,000 ft Winds

RJSA

Details ICAO RJSA (AOJ)
Name AOMORI
Region Japan
Timezone Asia/Tokyo (UTC+9.0)
Stats Elevation 664 ft / 202 m (AMSL)
Location 40.733272° 140.688594°
Runways 1
Magnetic Variation 8.959° W

METAR

RJSA 210700Z 27012KT CAVOK 20/06 Q1017

Decode

TAF

TAF TAF RJSA 210511Z 2106/2212 27010KT 9999 FEW030 BECMG 2110/2112 21008KT

Decode

Departure Runways

ID Width Length Bearing (true) Bearing (mag) Surface Threshold Offset Overrun Length
06 200 ft / 61 m 9,838 ft / 2,999 m 51.79° 60.75° Asphalt 0 ft / 0 m 200 ft / 61 m
24 200 ft / 61 m 9,838 ft / 2,999 m 231.81° 240.77° Asphalt 0 ft / 0 m 200 ft / 61 m

RJOR

Details ICAO RJOR (TTJ)
Name TOTTORI
Region Japan
Timezone Asia/Tokyo (UTC+9.0)
Stats Elevation 65 ft / 20 m (AMSL)
Location 35.530048° 134.165050°
Runways 1
Magnetic Variation 8.023° W

METAR

RJOR 210700Z 05018KT 9999 FEW040 20/13 Q1016

Decode

TAF

Not found

Destination Runways

ID Width Length Bearing (true) Bearing (mag) Surface Threshold Offset Overrun Length
10 150 ft / 46 m 6,550 ft / 1,996 m 93.80° 101.82° Asphalt 0 ft / 0 m 190 ft / 58 m
28 150 ft / 46 m 6,550 ft / 1,996 m 273.81° 281.83° Asphalt 0 ft / 0 m 190 ft / 58 m